sensor_id;sensor_type;location;lat;lon;timestamp;pressure;altitude;pressure_sealevel;temperature;humidity
25238;BME280;13185;50.872;5.306;2022-09-09T00:04:23;100489.50;;;15.68;100.00
25238;BME280;13185;50.872;5.306;2022-09-09T00:07:13;100482.53;;;15.65;100.00
25238;BME280;13185;50.872;5.306;2022-09-09T00:12:42;100478.50;;;15.59;100.00
25238;BME280;13185;50.872;5.306;2022-09-09T00:15:14;100477.09;;;15.55;100.00
25238;BME280;13185;50.872;5.306;2022-09-09T00:18:07;100479.09;;;15.53;100.00
25238;BME280;13185;50.872;5.306;2022-09-09T00:23:25;100479.63;;;15.47;100.00
25238;BME280;13185;50.872;5.306;2022-09-09T00:26:03;100473.53;;;15.45;100.00
25238;BME280;13185;50.872;5.306;2022-09-09T00:28:32;100473.53;;;15.45;100.00
25238;BME280;13185;50.872;5.306;2022-09-09T00:31:20;100476.38;;;15.44;100.00
25238;BME280;13185;50.872;5.306;2022-09-09T00:33:49;100470.50;;;15.39;100.00
25238;BME280;13185;50.872;5.306;2022-09-09T00:36:18;100469.94;;;15.35;100.00
25238;BME280;13185;50.872;5.306;2022-09-09T00:38:56;100464.69;;;15.34;100.00
25238;BME280;13185;50.872;5.306;2022-09-09T00:44:27;100457.97;;;15.28;100.00
25238;BME280;13185;50.872;5.306;2022-09-09T00:53:02;100462.22;;;15.21;100.00
25238;BME280;13185;50.872;5.306;2022-09-09T00:58:27;100450.16;;;15.15;100.00
25238;BME280;13185;50.872;5.306;2022-09-09T01:01:12;100460.25;;;15.13;100.00
25238;BME280;13185;50.872;5.306;2022-09-09T01:03:46;100456.81;;;15.11;100.00
25238;BME280;13185;50.872;5.306;2022-09-09T01:06:19;100458.78;;;15.09;100.00
25238;BME280;13185;50.872;5.306;2022-09-09T01:11:27;100457.50;;;15.04;100.00
25238;BME280;13185;50.872;5.306;2022-09-09T01:14:14;100461.34;;;15.01;100.00
25238;BME280;13185;50.872;5.306;2022-09-09T01:16:45;100462.91;;;15.04;100.00
25238;BME280;13185;50.872;5.306;2022-09-09T01:19:18;100457.22;;;15.07;100.00
25238;BME280;13185;50.872;5.306;2022-09-09T01:22:02;100458.94;;;15.08;100.00
25238;BME280;13185;50.872;5.306;2022-09-09T01:24:39;100456.09;;;15.09;100.00
25238;BME280;13185;50.872;5.306;2022-09-09T01:27:15;100448.84;;;15.10;100.00
25238;BME280;13185;50.872;5.306;2022-09-09T01:29:42;100457.78;;;15.10;100.00
25238;BME280;13185;50.872;5.306;2022-09-09T01:32:53;100457.09;;;15.08;100.00
25238;BME280;13185;50.872;5.306;2022-09-09T01:37:53;100456.22;;;15.08;100.00
25238;BME280;13185;50.872;5.306;2022-09-09T01:40:18;100446.28;;;15.08;100.00
25238;BME280;13185;50.872;5.306;2022-09-09T01:42:46;100450.97;;;15.06;100.00
25238;BME280;13185;50.872;5.306;2022-09-09T01:45:11;100450.13;;;15.06;100.00
25238;BME280;13185;50.872;5.306;2022-09-09T01:47:37;100443.88;;;15.05;100.00
25238;BME280;13185;50.872;5.306;2022-09-09T01:50:23;100441.72;;;15.09;100.00
25238;BME280;13185;50.872;5.306;2022-09-09T01:52:53;100438.63;;;15.13;100.00
25238;BME280;13185;50.872;5.306;2022-09-09T01:55:36;100435.50;;;15.18;100.00
25238;BME280;13185;50.872;5.306;2022-09-09T01:58:31;100425.56;;;15.18;100.00
25238;BME280;13185;50.872;5.306;2022-09-09T02:01:08;100428.97;;;15.20;100.00
25238;BME280;13185;50.872;5.306;2022-09-09T02:03:37;100423.69;;;15.19;100.00
25238;BME280;13185;50.872;5.306;2022-09-09T02:06:39;100428.25;;;15.18;100.00
25238;BME280;13185;50.872;5.306;2022-09-09T02:09:24;100425.69;;;15.17;100.00
25238;BME280;13185;50.872;5.306;2022-09-09T02:12:02;100421.28;;;15.16;100.00
25238;BME280;13185;50.872;5.306;2022-09-09T02:14:42;100425.13;;;15.13;100.00
25238;BME280;13185;50.872;5.306;2022-09-09T02:17:15;100425.97;;;15.14;100.00
25238;BME280;13185;50.872;5.306;2022-09-09T02:20:10;100416.16;;;15.13;100.00
25238;BME280;13185;50.872;5.306;2022-09-09T02:22:52;100424.41;;;15.11;100.00
25238;BME280;13185;50.872;5.306;2022-09-09T02:25:23;100412.63;;;15.12;100.00
25238;BME280;13185;50.872;5.306;2022-09-09T02:27:51;100419.03;;;15.11;100.00
25238;BME280;13185;50.872;5.306;2022-09-09T02:30:18;100416.56;;;15.08;100.00
25238;BME280;13185;50.872;5.306;2022-09-09T02:32:52;100409.31;;;15.09;100.00
25238;BME280;13185;50.872;5.306;2022-09-09T02:35:25;100420.28;;;15.07;100.00
25238;BME280;13185;50.872;5.306;2022-09-09T02:37:55;100416.56;;;15.08;100.00
25238;BME280;13185;50.872;5.306;2022-09-09T02:40:22;100420.41;;;15.06;100.00
25238;BME280;13185;50.872;5.306;2022-09-09T02:42:55;100413.31;;;15.05;100.00
25238;BME280;13185;50.872;5.306;2022-09-09T02:45:25;100416.84;;;15.05;100.00
25238;BME280;13185;50.872;5.306;2022-09-09T02:48:11;100402.50;;;15.05;100.00
25238;BME280;13185;50.872;5.306;2022-09-09T02:53:47;100423.25;;;15.04;100.00
25238;BME280;13185;50.872;5.306;2022-09-09T02:56:17;100417.00;;;15.04;100.00
25238;BME280;13185;50.872;5.306;2022-09-09T02:58:46;100420.94;;;14.99;100.00
25238;BME280;13185;50.872;5.306;2022-09-09T03:01:12;100421.56;;;15.03;100.00
25238;BME280;13185;50.872;5.306;2022-09-09T03:03:39;100420.84;;;15.01;100.00
25238;BME280;13185;50.872;5.306;2022-09-09T03:06:10;100416.41;;;15.00;100.00
25238;BME280;13185;50.872;5.306;2022-09-09T03:08:37;100419.97;;;15.00;100.00
25238;BME280;13185;50.872;5.306;2022-09-09T03:11:03;100427.94;;;15.02;100.00
25238;BME280;13185;50.872;5.306;2022-09-09T03:13:32;100427.22;;;15.00;100.00
25238;BME280;13185;50.872;5.306;2022-09-09T03:15:58;100420.09;;;14.99;100.00
25238;BME280;13185;50.872;5.306;2022-09-09T03:18:24;100422.94;;;14.97;100.00
25238;BME280;13185;50.872;5.306;2022-09-09T03:20:52;100421.81;;;15.00;100.00
25238;BME280;13185;50.872;5.306;2022-09-09T03:23:19;100421.81;;;15.00;100.00
25238;BME280;13185;50.872;5.306;2022-09-09T03:25:48;100428.06;;;15.00;100.00
25238;BME280;13185;50.872;5.306;2022-09-09T03:28:16;100421.56;;;15.03;100.00
25238;BME280;13185;50.872;5.306;2022-09-09T03:30:42;100426.53;;;15.08;100.00
25238;BME280;13185;50.872;5.306;2022-09-09T03:33:08;100428.09;;;15.10;100.00
25238;BME280;13185;50.872;5.306;2022-09-09T03:35:33;100419.97;;;15.10;100.00
25238;BME280;13185;50.872;5.306;2022-09-09T03:37:59;100424.28;;;15.13;100.00
25238;BME280;13185;50.872;5.306;2022-09-09T03:40:26;100419.59;;;15.15;100.00
25238;BME280;13185;50.872;5.306;2022-09-09T03:42:52;100424.28;;;15.13;100.00
25238;BME280;13185;50.872;5.306;2022-09-09T03:45:18;100421.72;;;15.11;100.00
25238;BME280;13185;50.872;5.306;2022-09-09T03:47:44;100426.22;;;15.11;100.00
25238;BME280;13185;50.872;5.306;2022-09-09T03:50:09;100426.22;;;15.11;100.00
25238;BME280;13185;50.872;5.306;2022-09-09T03:52:40;100429.06;;;15.09;100.00
25238;BME280;13185;50.872;5.306;2022-09-09T03:55:13;100429.94;;;15.10;100.00
25238;BME280;13185;50.872;5.306;2022-09-09T03:57:38;100425.38;;;15.10;100.00
25238;BME280;13185;50.872;5.306;2022-09-09T04:00:08;100415.72;;;15.08;100.00
25238;BME280;13185;50.872;5.306;2022-09-09T04:02:44;100420.41;;;15.06;100.00
25238;BME280;13185;50.872;5.306;2022-09-09T04:05:13;100422.25;;;15.05;100.00
25238;BME280;13185;50.872;5.306;2022-09-09T04:07:41;100421.41;;;15.05;100.00
25238;BME280;13185;50.872;5.306;2022-09-09T04:10:07;100416.16;;;15.03;100.00
25238;BME280;13185;50.872;5.306;2022-09-09T04:12:34;100416.41;;;15.00;100.00
25238;BME280;13185;50.872;5.306;2022-09-09T04:15:00;100419.38;;;14.97;100.00
25238;BME280;13185;50.872;5.306;2022-09-09T04:17:27;100414.84;;;14.97;100.00
25238;BME280;13185;50.872;5.306;2022-09-09T04:19:53;100414.00;;;14.97;100.00
25238;BME280;13185;50.872;5.306;2022-09-09T04:22:18;100412.44;;;14.94;100.00
25238;BME280;13185;50.872;5.306;2022-09-09T04:24:44;100411.56;;;14.94;100.00
25238;BME280;13185;50.872;5.306;2022-09-09T04:27:09;100409.88;;;14.93;100.00
25238;BME280;13185;50.872;5.306;2022-09-09T04:29:35;100404.63;;;14.91;100.00
25238;BME280;13185;50.872;5.306;2022-09-09T04:32:01;100415.28;;;14.93;100.00
25238;BME280;13185;50.872;5.306;2022-09-09T04:34:27;100406.47;;;14.91;100.00
25238;BME280;13185;50.872;5.306;2022-09-09T04:36:54;100405.59;;;14.90;100.00
25238;BME280;13185;50.872;5.306;2022-09-09T04:39:20;100409.16;;;14.91;100.00
25238;BME280;13185;50.872;5.306;2022-09-09T04:41:45;100402.91;;;14.90;100.00
25238;BME280;13185;50.872;5.306;2022-09-09T04:44:12;100411.97;;;14.89;100.00
25238;BME280;13185;50.872;5.306;2022-09-09T04:46:37;100412.13;;;14.88;100.00
25238;BME280;13185;50.872;5.306;2022-09-09T04:49:03;100410.56;;;14.85;100.00
25238;BME280;13185;50.872;5.306;2022-09-09T04:51:31;100414.38;;;14.83;100.00
25238;BME280;13185;50.872;5.306;2022-09-09T04:53:57;100421.34;;;14.85;100.00
25238;BME280;13185;50.872;5.306;2022-09-09T04:56:22;100408.13;;;14.82;100.00
25238;BME280;13185;50.872;5.306;2022-09-09T04:58:54;100411.69;;;14.83;100.00
25238;BME280;13185;50.872;5.306;2022-09-09T05:01:23;100412.81;;;14.80;100.00
25238;BME280;13185;50.872;5.306;2022-09-09T05:03:50;100415.53;;;14.80;100.00
25238;BME280;13185;50.872;5.306;2022-09-09T05:06:21;100415.09;;;14.85;100.00
25238;BME280;13185;50.872;5.306;2022-09-09T05:08:49;100416.66;;;14.87;100.00
25238;BME280;13185;50.872;5.306;2022-09-09T05:11:29;100421.06;;;14.88;100.00
25238;BME280;13185;50.872;5.306;2022-09-09T05:14:07;100407.31;;;14.91;100.00
25238;BME280;13185;50.872;5.306;2022-09-09T05:16:34;100412.56;;;14.93;100.00
25238;BME280;13185;50.872;5.306;2022-09-09T05:18:59;100414.66;;;14.89;100.00
25238;BME280;13185;50.872;5.306;2022-09-09T05:21:29;100414.66;;;14.89;100.00
25238;BME280;13185;50.872;5.306;2022-09-09T05:23:56;100411.88;;;14.91;100.00
25238;BME280;13185;50.872;5.306;2022-09-09T05:26:23;100411.00;;;14.90;100.00
25238;BME280;13185;50.872;5.306;2022-09-09T05:28:51;100403.34;;;14.95;100.00
25238;BME280;13185;50.872;5.306;2022-09-09T05:31:18;100409.44;;;14.97;100.00
25238;BME280;13185;50.872;5.306;2022-09-09T05:33:47;100411.84;;;15.00;100.00
25238;BME280;13185;50.872;5.306;2022-09-09T05:36:19;100411.59;;;15.04;100.00
25238;BME280;13185;50.872;5.306;2022-09-09T05:38:48;100416.56;;;15.08;100.00
25238;BME280;13185;50.872;5.306;2022-09-09T05:41:15;100417.28;;;15.10;100.00
25238;BME280;13185;50.872;5.306;2022-09-09T05:43:41;100428.69;;;15.14;100.00
25238;BME280;13185;50.872;5.306;2022-09-09T05:46:18;100419.16;;;15.19;100.00
25238;BME280;13185;50.872;5.306;2022-09-09T05:48:47;100419.84;;;15.21;100.00
25238;BME280;13185;50.872;5.306;2022-09-09T05:51:16;100418.59;;;15.25;100.00
25238;BME280;13185;50.872;5.306;2022-09-09T05:53:44;100413.06;;;15.27;100.00
25238;BME280;13185;50.872;5.306;2022-09-09T05:56:13;100413.06;;;15.27;100.00
25238;BME280;13185;50.872;5.306;2022-09-09T05:58:42;100418.16;;;15.30;100.00
25238;BME280;13185;50.872;5.306;2022-09-09T06:01:16;100416.91;;;15.34;100.00
25238;BME280;13185;50.872;5.306;2022-09-09T06:03:43;100410.38;;;15.37;100.00
25238;BME280;13185;50.872;5.306;2022-09-09T06:06:12;100414.47;;;15.41;100.00
25238;BME280;13185;50.872;5.306;2022-09-09T06:08:40;100406.38;;;15.41;100.00
25238;BME280;13185;50.872;5.306;2022-09-09T06:11:08;100408.53;;;15.47;100.00
25238;BME280;13185;50.872;5.306;2022-09-09T06:13:35;100409.09;;;15.50;100.00
25238;BME280;13185;50.872;5.306;2022-09-09T06:16:16;100410.66;;;15.53;100.00
25238;BME280;13185;50.872;5.306;2022-09-09T06:18:43;100398.97;;;15.52;100.00
25238;BME280;13185;50.872;5.306;2022-09-09T06:21:14;100396.16;;;15.54;100.00
25238;BME280;13185;50.872;5.306;2022-09-09T06:23:40;100404.38;;;15.52;100.00
25238;BME280;13185;50.872;5.306;2022-09-09T06:26:07;100405.97;;;15.55;100.00
25238;BME280;13185;50.872;5.306;2022-09-09T06:28:34;100399.41;;;15.57;100.00
25238;BME280;13185;50.872;5.306;2022-09-09T06:31:02;100390.47;;;15.57;100.00
25238;BME280;13185;50.872;5.306;2022-09-09T06:33:35;100390.63;;;15.65;100.00
25238;BME280;13185;50.872;5.306;2022-09-09T06:36:03;100402.31;;;15.75;100.00
25238;BME280;13185;50.872;5.306;2022-09-09T06:38:31;100391.19;;;15.88;100.00
25238;BME280;13185;50.872;5.306;2022-09-09T06:40:58;100393.28;;;16.04;100.00
25238;BME280;13185;50.872;5.306;2022-09-09T06:43:25;100400.34;;;16.14;100.00
25238;BME280;13185;50.872;5.306;2022-09-09T06:45:59;100404.19;;;16.22;98.92
25238;BME280;13185;50.872;5.306;2022-09-09T06:48:26;100406.47;;;16.26;97.65
25238;BME280;13185;50.872;5.306;2022-09-09T06:51:03;100407.31;;;16.36;98.00
25238;BME280;13185;50.872;5.306;2022-09-09T06:53:30;100408.81;;;16.49;96.98
25238;BME280;13185;50.872;5.306;2022-09-09T06:55:55;100399.94;;;16.56;96.48
25238;BME280;13185;50.872;5.306;2022-09-09T06:58:21;100405.47;;;16.64;96.78
25238;BME280;13185;50.872;5.306;2022-09-09T07:00:48;100414.31;;;16.57;94.94
25238;BME280;13185;50.872;5.306;2022-09-09T07:03:13;100397.84;;;16.50;95.26
25238;BME280;13185;50.872;5.306;2022-09-09T07:05:39;100412.38;;;16.49;95.62
25238;BME280;13185;50.872;5.306;2022-09-09T07:08:04;100420.50;;;16.49;95.12
25238;BME280;13185;50.872;5.306;2022-09-09T07:10:31;100408.25;;;16.45;95.15
25238;BME280;13185;50.872;5.306;2022-09-09T07:12:59;100411.41;;;16.40;94.79
25238;BME280;13185;50.872;5.306;2022-09-09T07:15:26;100406.16;;;16.39;95.25
25238;BME280;13185;50.872;5.306;2022-09-09T07:17:53;100403.41;;;16.49;96.17
25238;BME280;13185;50.872;5.306;2022-09-09T07:20:20;100415.09;;;16.49;94.92
25238;BME280;13185;50.872;5.306;2022-09-09T07:22:45;100407.13;;;16.48;94.17
25238;BME280;13185;50.872;5.306;2022-09-09T07:25:11;100405.81;;;16.52;94.61
25238;BME280;13185;50.872;5.306;2022-09-09T07:27:37;100411.34;;;16.60;94.23
25238;BME280;13185;50.872;5.306;2022-09-09T07:30:04;100400.91;;;16.65;94.43
25238;BME280;13185;50.872;5.306;2022-09-09T07:32:31;100402.06;;;16.62;93.15
25238;BME280;13185;50.872;5.306;2022-09-09T07:34:56;100405.06;;;16.59;93.21
25238;BME280;13185;50.872;5.306;2022-09-09T07:37:24;100409.63;;;16.68;93.53
25238;BME280;13185;50.872;5.306;2022-09-09T07:39:50;100403.28;;;16.78;92.29
25238;BME280;13185;50.872;5.306;2022-09-09T07:42:17;100410.97;;;16.82;91.11
25238;BME280;13185;50.872;5.306;2022-09-09T07:44:43;100401.69;;;16.85;91.12
25238;BME280;13185;50.872;5.306;2022-09-09T07:47:11;100401.06;;;17.00;91.52
25238;BME280;13185;50.872;5.306;2022-09-09T07:49:43;100405.84;;;17.07;90.31
25238;BME280;13185;50.872;5.306;2022-09-09T07:52:12;100392.00;;;17.10;90.15
25238;BME280;13185;50.872;5.306;2022-09-09T07:54:41;100407.25;;;17.11;88.87
25238;BME280;13185;50.872;5.306;2022-09-09T07:57:07;100410.81;;;17.11;88.92
25238;BME280;13185;50.872;5.306;2022-09-09T07:59:34;100416.28;;;17.01;88.58
25238;BME280;13185;50.872;5.306;2022-09-09T08:02:01;100420.75;;;16.93;89.17
25238;BME280;13185;50.872;5.306;2022-09-09T08:04:28;100421.91;;;16.90;89.75
25238;BME280;13185;50.872;5.306;2022-09-09T08:06:57;100421.22;;;16.88;89.79
25238;BME280;13185;50.872;5.306;2022-09-09T08:09:25;100415.66;;;16.90;90.17
25238;BME280;13185;50.872;5.306;2022-09-09T08:11:56;100425.31;;;16.92;89.72
25238;BME280;13185;50.872;5.306;2022-09-09T08:14:23;100415.38;;;16.83;88.78
25238;BME280;13185;50.872;5.306;2022-09-09T08:16:50;100419.81;;;16.84;89.67
25238;BME280;13185;50.872;5.306;2022-09-09T08:19:18;100407.38;;;16.91;89.61
25238;BME280;13185;50.872;5.306;2022-09-09T08:21:45;100414.66;;;16.91;89.00
25238;BME280;13185;50.872;5.306;2022-09-09T08:24:12;100415.94;;;16.87;89.40
25238;BME280;13185;50.872;5.306;2022-09-09T08:26:41;100428.94;;;16.83;89.25
25238;BME280;13185;50.872;5.306;2022-09-09T08:29:09;100426.41;;;16.72;89.05
25238;BME280;13185;50.872;5.306;2022-09-09T08:31:38;100419.53;;;16.78;90.09
25238;BME280;13185;50.872;5.306;2022-09-09T08:34:06;100421.97;;;16.81;89.90
25238;BME280;13185;50.872;5.306;2022-09-09T08:36:35;100421.91;;;16.90;89.47
25238;BME280;13185;50.872;5.306;2022-09-09T08:39:04;100428.34;;;16.89;89.51
25238;BME280;13185;50.872;5.306;2022-09-09T08:41:39;100431.06;;;16.89;89.50
25238;BME280;13185;50.872;5.306;2022-09-09T08:46:52;100428.94;;;16.83;89.53
25238;BME280;13185;50.872;5.306;2022-09-09T08:52:01;100430.38;;;16.78;89.21
25238;BME280;13185;50.872;5.306;2022-09-09T08:54:33;100433.53;;;16.73;89.69
25238;BME280;13185;50.872;5.306;2022-09-09T08:57:00;100427.28;;;16.72;90.26
25238;BME280;13185;50.872;5.306;2022-09-09T08:59:26;100443.91;;;16.78;90.07
25238;BME280;13185;50.872;5.306;2022-09-09T09:02:20;100438.75;;;16.84;90.28
25238;BME280;13185;50.872;5.306;2022-09-09T09:07:32;100447.25;;;16.99;88.88
25238;BME280;13185;50.872;5.306;2022-09-09T09:10:36;100432.66;;;17.10;88.80
25238;BME280;13185;50.872;5.306;2022-09-09T09:13:13;100441.16;;;17.15;87.75
25238;BME280;13185;50.872;5.306;2022-09-09T09:15:42;100456.41;;;17.16;86.83
25238;BME280;13185;50.872;5.306;2022-09-09T09:18:11;100467.78;;;17.19;87.30
25238;BME280;13185;50.872;5.306;2022-09-09T09:21:03;100455.25;;;17.18;87.31
25238;BME280;13185;50.872;5.306;2022-09-09T09:23:44;100458.81;;;17.19;88.05
25238;BME280;13185;50.872;5.306;2022-09-09T09:26:11;100457.16;;;17.08;90.43
25238;BME280;13185;50.872;5.306;2022-09-09T09:28:39;100466.28;;;17.07;91.87
25238;BME280;13185;50.872;5.306;2022-09-09T09:31:11;100463.25;;;17.20;91.39
25238;BME280;13185;50.872;5.306;2022-09-09T09:36:07;100460.03;;;17.34;88.92
25238;BME280;13185;50.872;5.306;2022-09-09T09:38:36;100455.63;;;17.51;88.65
25238;BME280;13185;50.872;5.306;2022-09-09T09:41:04;100447.97;;;17.64;88.49
25238;BME280;13185;50.872;5.306;2022-09-09T09:43:35;100459.97;;;17.62;87.74
25238;BME280;13185;50.872;5.306;2022-09-09T09:46:05;100454.41;;;17.63;86.65
25238;BME280;13185;50.872;5.306;2022-09-09T09:48:31;100451.22;;;17.68;88.15
25238;BME280;13185;50.872;5.306;2022-09-09T09:51:09;100458.13;;;17.80;88.24
25238;BME280;13185;50.872;5.306;2022-09-09T09:53:38;100448.38;;;17.87;87.06
25238;BME280;13185;50.872;5.306;2022-09-09T09:56:07;100442.69;;;17.80;85.23
25238;BME280;13185;50.872;5.306;2022-09-09T10:01:31;100454.88;;;17.76;87.10
25238;BME280;13185;50.872;5.306;2022-09-09T10:04:14;100455.75;;;17.77;85.09
25238;BME280;13185;50.872;5.306;2022-09-09T10:06:42;100441.09;;;17.70;85.02
25238;BME280;13185;50.872;5.306;2022-09-09T10:09:29;100452.06;;;17.68;85.41
25238;BME280;13185;50.872;5.306;2022-09-09T10:20:17;100460.41;;;17.39;91.19
25238;BME280;13185;50.872;5.306;2022-09-09T10:22:51;100468.06;;;17.26;92.15
25238;BME280;13185;50.872;5.306;2022-09-09T10:30:47;100476.28;;;16.79;98.84
25238;BME280;13185;50.872;5.306;2022-09-09T10:36:03;100487.16;;;16.60;100.00
25238;BME280;13185;50.872;5.306;2022-09-09T10:38:39;100478.16;;;16.69;100.00
25238;BME280;13185;50.872;5.306;2022-09-09T10:41:13;100481.56;;;16.71;100.00
25238;BME280;13185;50.872;5.306;2022-09-09T10:51:58;100465.25;;;16.90;100.00
25238;BME280;13185;50.872;5.306;2022-09-09T10:57:16;100471.88;;;17.06;100.00
25238;BME280;13185;50.872;5.306;2022-09-09T10:59:48;100475.28;;;17.08;100.00
25238;BME280;13185;50.872;5.306;2022-09-09T11:02:26;100472.97;;;17.13;100.00
25238;BME280;13185;50.872;5.306;2022-09-09T11:05:15;100472.34;;;17.19;100.00
25238;BME280;13185;50.872;5.306;2022-09-09T11:07:50;100471.06;;;17.23;100.00
25238;BME280;13185;50.872;5.306;2022-09-09T11:10:41;100470.31;;;17.30;100.00
25238;BME280;13185;50.872;5.306;2022-09-09T11:13:18;100472.09;;;17.40;100.00
25238;BME280;13185;50.872;5.306;2022-09-09T11:15:52;100470.72;;;17.53;100.00
25238;BME280;13185;50.872;5.306;2022-09-09T11:18:23;100475.25;;;17.63;100.00
25238;BME280;13185;50.872;5.306;2022-09-09T11:20:51;100469.91;;;17.71;100.00
25238;BME280;13185;50.872;5.306;2022-09-09T11:23:29;100472.34;;;17.74;100.00
25238;BME280;13185;50.872;5.306;2022-09-09T11:26:02;100465.91;;;17.75;100.00
25238;BME280;13185;50.872;5.306;2022-09-09T11:29:05;100470.06;;;17.69;98.23
25238;BME280;13185;50.872;5.306;2022-09-09T11:31:49;100469.63;;;17.74;96.25
25238;BME280;13185;50.872;5.306;2022-09-09T11:34:50;100463.03;;;17.76;97.52
25238;BME280;13185;50.872;5.306;2022-09-09T11:42:41;100464.31;;;18.08;95.98
25238;BME280;13185;50.872;5.306;2022-09-09T11:45:26;100461.50;;;18.17;94.93
25238;BME280;13185;50.872;5.306;2022-09-09T11:47:59;100466.41;;;18.14;93.76
25238;BME280;13185;50.872;5.306;2022-09-09T11:52:50;100469.41;;;18.11;91.77
25238;BME280;13185;50.872;5.306;2022-09-09T11:55:33;100459.91;;;18.07;93.17
25238;BME280;13185;50.872;5.306;2022-09-09T12:06:31;100490.41;;;17.55;96.23
25238;BME280;13185;50.872;5.306;2022-09-09T12:12:18;100497.75;;;17.18;100.00
25238;BME280;13185;50.872;5.306;2022-09-09T12:15:25;100497.50;;;16.84;100.00
25238;BME280;13185;50.872;5.306;2022-09-09T12:17:55;100491.94;;;16.76;100.00
25238;BME280;13185;50.872;5.306;2022-09-09T12:20:31;100476.56;;;16.66;100.00
25238;BME280;13185;50.872;5.306;2022-09-09T12:23:25;100482.44;;;16.62;100.00
25238;BME280;13185;50.872;5.306;2022-09-09T12:26:07;100478.16;;;16.59;100.00
25238;BME280;13185;50.872;5.306;2022-09-09T12:28:52;100478.88;;;16.71;100.00
25238;BME280;13185;50.872;5.306;2022-09-09T12:31:30;100475.25;;;16.90;100.00
25238;BME280;13185;50.872;5.306;2022-09-09T12:34:16;100474.56;;;17.06;100.00
25238;BME280;13185;50.872;5.306;2022-09-09T12:36:47;100474.84;;;17.12;100.00
25238;BME280;13185;50.872;5.306;2022-09-09T12:39:21;100477.78;;;17.19;100.00
25238;BME280;13185;50.872;5.306;2022-09-09T12:41:54;100464.59;;;17.34;100.00
25238;BME280;13185;50.872;5.306;2022-09-09T12:44:22;100466.75;;;17.48;100.00
25238;BME280;13185;50.872;5.306;2022-09-09T12:46:49;100458.97;;;17.63;100.00
25238;BME280;13185;50.872;5.306;2022-09-09T12:49:44;100463.72;;;17.78;100.00
25238;BME280;13185;50.872;5.306;2022-09-09T12:52:17;100460.06;;;17.87;100.00
25238;BME280;13185;50.872;5.306;2022-09-09T12:54:46;100452.84;;;17.96;100.00
25238;BME280;13185;50.872;5.306;2022-09-09T12:57:13;100460.13;;;18.13;100.00
25238;BME280;13185;50.872;5.306;2022-09-09T12:59:41;100458.53;;;18.29;100.00
25238;BME280;13185;50.872;5.306;2022-09-09T13:02:24;100450.53;;;18.53;100.00
25238;BME280;13185;50.872;5.306;2022-09-09T13:04:52;100458.00;;;18.51;100.00
25238;BME280;13185;50.872;5.306;2022-09-09T13:07:19;100461.09;;;18.56;100.00
25238;BME280;13185;50.872;5.306;2022-09-09T13:09:46;100457.53;;;18.56;99.63
25238;BME280;13185;50.872;5.306;2022-09-09T13:12:18;100451.28;;;18.63;99.79
25238;BME280;13185;50.872;5.306;2022-09-09T13:14:47;100453.78;;;18.83;98.60
25238;BME280;13185;50.872;5.306;2022-09-09T13:17:23;100451.34;;;18.97;97.03
25238;BME280;13185;50.872;5.306;2022-09-09T13:19:50;100448.13;;;19.02;95.31
25238;BME280;13185;50.872;5.306;2022-09-09T13:22:34;100444.91;;;19.07;94.48
25238;BME280;13185;50.872;5.306;2022-09-09T13:27:37;100435.78;;;19.24;91.61
25238;BME280;13185;50.872;5.306;2022-09-09T13:30:27;100449.09;;;19.43;92.45
25238;BME280;13185;50.872;5.306;2022-09-09T13:35:30;100434.66;;;19.43;88.98
25238;BME280;13185;50.872;5.306;2022-09-09T13:37:56;100435.84;;;19.48;89.43
25238;BME280;13185;50.872;5.306;2022-09-09T13:40:23;100433.88;;;19.67;86.95
25238;BME280;13185;50.872;5.306;2022-09-09T13:42:52;100424.19;;;19.88;85.84
25238;BME280;13185;50.872;5.306;2022-09-09T13:45:25;100433.03;;;20.07;83.59
25238;BME280;13185;50.872;5.306;2022-09-09T13:47:53;100427.22;;;20.10;81.85
25238;BME280;13185;50.872;5.306;2022-09-09T13:52:53;100425.34;;;20.10;82.10
25238;BME280;13185;50.872;5.306;2022-09-09T13:55:19;100436.09;;;20.04;82.03
25238;BME280;13185;50.872;5.306;2022-09-09T13:58:03;100443.75;;;20.16;81.59
25238;BME280;13185;50.872;5.306;2022-09-09T14:00:32;100440.16;;;20.00;80.37
25238;BME280;13185;50.872;5.306;2022-09-09T14:02:58;100433.38;;;19.96;81.07
25238;BME280;13185;50.872;5.306;2022-09-09T14:05:26;100425.72;;;20.15;81.75
25238;BME280;13185;50.872;5.306;2022-09-09T14:07:52;100432.66;;;20.26;80.27
25238;BME280;13185;50.872;5.306;2022-09-09T14:10:18;100429.03;;;20.66;79.82
25238;BME280;13185;50.872;5.306;2022-09-09T14:12:43;100422.66;;;20.90;78.18
25238;BME280;13185;50.872;5.306;2022-09-09T14:15:10;100424.13;;;21.01;76.29
25238;BME280;13185;50.872;5.306;2022-09-09T14:17:36;100427.75;;;20.93;76.74
25238;BME280;13185;50.872;5.306;2022-09-09T14:20:05;100424.56;;;20.73;76.64
25238;BME280;13185;50.872;5.306;2022-09-09T14:22:32;100435.53;;;20.65;77.72
25238;BME280;13185;50.872;5.306;2022-09-09T14:24:58;100431.47;;;20.53;77.39
25238;BME280;13185;50.872;5.306;2022-09-09T14:27:23;100440.16;;;20.49;78.01
25238;BME280;13185;50.872;5.306;2022-09-09T14:29:51;100425.84;;;20.46;77.47
25238;BME280;13185;50.872;5.306;2022-09-09T14:32:16;100432.66;;;20.42;76.81
25238;BME280;13185;50.872;5.306;2022-09-09T14:34:42;100430.28;;;20.48;76.79
25238;BME280;13185;50.872;5.306;2022-09-09T14:37:07;100440.91;;;20.73;76.16
25238;BME280;13185;50.872;5.306;2022-09-09T14:39:32;100428.19;;;20.74;74.67
25238;BME280;13185;50.872;5.306;2022-09-09T14:41:58;100425.66;;;20.64;73.84